createdAt,value
2019-01-31T00:01:14.358Z,19.62
2019-01-31T00:04:09.642Z,23.50
2019-01-31T00:07:03.643Z,21.12
2019-01-31T00:10:13.631Z,20.62
2019-01-31T00:13:09.575Z,21.20
2019-01-31T00:16:05.954Z,20.90
2019-01-31T00:19:11.163Z,20.40
2019-01-31T00:22:21.975Z,19.43
2019-01-31T00:24:59.315Z,22.15
2019-01-31T00:27:49.522Z,21.97
2019-01-31T00:30:49.888Z,22.85
2019-01-31T00:33:45.544Z,21.62
2019-01-31T00:36:51.680Z,25.15
2019-01-31T00:40:00.925Z,25.15
2019-01-31T00:42:54.190Z,24.95
2019-01-31T00:45:49.724Z,23.75
2019-01-31T00:48:37.274Z,24.70
2019-01-31T00:51:29.364Z,24.98
2019-01-31T00:54:27.179Z,25.23
2019-01-31T00:57:42.000Z,26.35
2019-01-31T01:00:36.498Z,26.30
2019-01-31T01:03:29.120Z,25.88
2019-01-31T01:06:38.288Z,26.90
2019-01-31T01:09:31.627Z,26.97
2019-01-31T01:12:26.007Z,24.97
2019-01-31T01:15:35.041Z,31.00
2019-01-31T01:18:13.577Z,27.77
2019-01-31T01:20:53.842Z,29.98
2019-01-31T01:24:02.205Z,29.18
2019-01-31T01:26:53.912Z,31.15
2019-01-31T01:30:00.368Z,29.48
2019-01-31T01:33:12.567Z,31.35
2019-01-31T01:35:55.212Z,30.75
2019-01-31T01:39:06.544Z,36.50
2019-01-31T01:42:08.300Z,33.98
2019-01-31T01:45:19.303Z,37.90
2019-01-31T01:48:12.232Z,38.40
2019-01-31T01:50:57.872Z,40.78
2019-01-31T01:53:48.035Z,42.15
2019-01-31T01:56:30.976Z,44.15
2019-01-31T01:59:34.103Z,43.23
2019-01-31T02:02:43.803Z,43.87
2019-01-31T02:06:18.835Z,43.60
2019-01-31T02:09:14.776Z,48.65
2019-01-31T02:12:29.581Z,43.13
2019-01-31T02:15:47.383Z,44.48
2019-01-31T02:18:45.805Z,43.38
2019-01-31T02:21:28.476Z,44.13
2019-01-31T02:24:24.567Z,44.95
2019-01-31T02:27:54.352Z,44.50
2019-01-31T02:30:57.031Z,42.00
2019-01-31T02:34:02.064Z,40.28
2019-01-31T02:37:01.911Z,40.70
2019-01-31T02:40:13.689Z,40.00
2019-01-31T02:43:09.794Z,34.75
2019-01-31T02:46:15.768Z,43.80
2019-01-31T02:57:24.297Z,37.00
2019-01-31T03:00:29.183Z,37.80
2019-01-31T03:03:08.172Z,40.50
2019-01-31T03:06:32.756Z,38.97
2019-01-31T03:09:54.596Z,37.20
2019-01-31T03:12:52.267Z,36.87
2019-01-31T03:15:55.832Z,31.33
2019-01-31T03:18:47.904Z,34.37
2019-01-31T03:21:38.671Z,37.03
2019-01-31T03:24:43.446Z,27.20
2019-01-31T03:27:57.702Z,30.90
2019-01-31T03:31:18.504Z,26.70
2019-01-31T03:34:15.504Z,28.40
2019-01-31T03:37:27.081Z,29.63
2019-01-31T03:40:31.317Z,29.60
2019-01-31T03:43:36.316Z,29.12
2019-01-31T03:46:47.991Z,28.87
2019-01-31T03:49:54.923Z,29.60
2019-01-31T03:52:50.597Z,30.20
2019-01-31T03:56:05.670Z,32.63
2019-01-31T03:59:03.948Z,26.23
2019-01-31T04:01:57.831Z,27.37
2019-01-31T04:04:39.277Z,25.72
2019-01-31T04:07:09.965Z,26.57
2019-01-31T04:09:40.876Z,30.07
2019-01-31T04:14:41.119Z,27.20
2019-01-31T04:17:11.780Z,24.85
2019-01-31T04:19:42.720Z,26.82
2019-01-31T04:22:13.944Z,27.77
2019-01-31T04:24:44.779Z,26.30
2019-01-31T04:27:18.004Z,30.12
2019-01-31T04:29:50.928Z,26.45
2019-01-31T04:32:21.627Z,23.83
2019-01-31T04:34:52.583Z,24.30
2019-01-31T04:37:23.464Z,26.87
2019-01-31T04:39:54.424Z,25.55
2019-01-31T04:42:25.179Z,27.00
2019-01-31T04:44:55.989Z,26.37
2019-01-31T04:47:26.689Z,26.68
2019-01-31T04:49:59.555Z,26.75
2019-01-31T04:52:30.358Z,28.80
2019-01-31T04:55:10.022Z,29.05
2019-01-31T04:57:40.021Z,26.42
2019-01-31T05:00:13.824Z,25.77
2019-01-31T05:02:44.588Z,26.53
2019-01-31T05:05:15.606Z,26.12
2019-01-31T05:07:46.576Z,25.27
2019-01-31T05:10:17.388Z,26.00
2019-01-31T05:27:50.779Z,25.03
2019-01-31T05:30:24.990Z,24.53
2019-01-31T05:40:27.080Z,25.33
2019-01-31T05:42:57.836Z,24.73
2019-01-31T05:45:28.546Z,26.77
2019-01-31T05:47:59.236Z,26.60
2019-01-31T05:55:29.408Z,23.47
2019-01-31T05:58:00.252Z,29.00
2019-01-31T06:00:35.832Z,28.97
2019-01-31T06:03:06.582Z,30.00
2019-01-31T06:05:37.749Z,31.97
2019-01-31T06:15:37.426Z,27.83
2019-01-31T06:18:08.303Z,34.00
2019-01-31T06:20:39.018Z,34.10
2019-01-31T06:23:09.835Z,36.88
2019-01-31T06:25:40.788Z,35.87
2019-01-31T06:28:12.972Z,32.00
2019-01-31T06:33:13.481Z,29.50
2019-01-31T06:35:44.291Z,32.10
2019-01-31T06:38:15.013Z,36.80
2019-01-31T06:40:45.682Z,31.03
2019-01-31T06:43:17.164Z,30.67
2019-01-31T06:45:47.750Z,25.03
2019-01-31T06:48:18.599Z,29.47
2019-01-31T06:50:49.350Z,28.50
2019-01-31T06:53:21.614Z,29.00
2019-01-31T06:55:52.445Z,24.30
2019-01-31T06:58:26.039Z,30.57
2019-01-31T07:00:57.380Z,26.60
2019-01-31T07:03:31.696Z,27.90
2019-01-31T07:06:02.416Z,30.30
2019-01-31T07:08:35.718Z,28.40
2019-01-31T07:11:06.424Z,31.52
2019-01-31T07:13:37.138Z,30.37
2019-01-31T07:16:08.444Z,29.98
2019-01-31T07:18:39.162Z,29.98
2019-01-31T07:21:11.634Z,28.35
2019-01-31T07:23:42.505Z,30.70
2019-01-31T07:26:17.981Z,32.60
2019-01-31T07:28:53.609Z,29.90
2019-01-31T07:31:24.692Z,30.40
2019-01-31T07:34:14.853Z,28.30
2019-01-31T07:36:47.644Z,28.90
2019-01-31T07:39:18.616Z,31.83
2019-01-31T07:41:49.879Z,31.53
2019-01-31T07:49:32.172Z,27.53
2019-01-31T07:53:07.867Z,26.35
2019-01-31T07:55:59.233Z,21.80
2019-01-31T07:58:49.262Z,18.33
2019-01-31T08:01:36.529Z,15.23
2019-01-31T08:04:24.694Z,17.12
2019-01-31T08:07:10.801Z,16.93
2019-01-31T08:13:36.592Z,17.00
2019-01-31T08:16:10.001Z,11.80
2019-01-31T08:18:53.857Z,12.10
2019-01-31T08:21:24.849Z,11.37
2019-01-31T08:28:53.815Z,13.37
2019-01-31T08:35:16.821Z,14.07
2019-01-31T08:42:03.518Z,12.23
2019-01-31T08:48:12.497Z,10.83
2019-01-31T08:51:11.467Z,12.77
2019-01-31T08:54:14.478Z,13.80
2019-01-31T08:57:36.910Z,12.87
2019-01-31T09:00:54.991Z,12.53
2019-01-31T09:04:01.597Z,10.87
2019-01-31T09:07:01.932Z,11.43
2019-01-31T09:09:43.476Z,9.47
2019-01-31T09:12:57.228Z,11.33
2019-01-31T09:16:03.429Z,15.17
2019-01-31T09:18:54.078Z,9.30
2019-01-31T09:22:44.962Z,10.20
2019-01-31T09:26:28.574Z,10.10
2019-01-31T09:29:47.944Z,15.10
2019-01-31T09:33:06.348Z,8.70
2019-01-31T09:36:42.469Z,8.87
2019-01-31T09:40:26.238Z,8.40
2019-01-31T09:43:56.841Z,13.17
2019-01-31T09:47:23.718Z,8.63
2019-01-31T09:50:35.240Z,11.13
2019-01-31T09:54:23.556Z,13.03
2019-01-31T09:58:01.102Z,11.73
2019-01-31T10:01:08.421Z,10.57
2019-01-31T10:04:25.197Z,9.43
2019-01-31T10:07:24.277Z,10.80
2019-01-31T10:10:36.938Z,15.83
2019-01-31T10:14:41.288Z,11.70
2019-01-31T10:17:55.390Z,9.93
2019-01-31T10:21:28.624Z,9.07
2019-01-31T10:54:16.636Z,9.20
2019-01-31T10:57:26.290Z,11.33
2019-01-31T11:00:42.374Z,10.23
2019-01-31T11:03:40.716Z,5.77
2019-01-31T11:06:33.702Z,9.63
2019-01-31T11:09:25.126Z,7.43
2019-01-31T11:12:27.565Z,6.80
2019-01-31T11:15:39.318Z,8.50
2019-01-31T11:18:37.969Z,5.73
2019-01-31T11:21:42.579Z,5.60
2019-01-31T11:24:37.562Z,6.37
2019-01-31T11:27:55.677Z,5.23
2019-01-31T11:30:58.996Z,7.60
2019-01-31T11:33:42.658Z,7.90
2019-01-31T11:36:42.111Z,7.53
2019-01-31T11:39:36.427Z,12.73
2019-01-31T11:42:44.822Z,5.80
2019-01-31T11:46:08.872Z,5.70
2019-01-31T11:49:08.629Z,6.10
2019-01-31T11:52:31.955Z,7.97
2019-01-31T11:55:39.654Z,5.10
2019-01-31T11:58:33.278Z,7.10
2019-01-31T12:01:07.705Z,5.80
2019-01-31T12:03:38.846Z,9.47
2019-01-31T12:06:09.586Z,10.03
2019-01-31T12:08:40.253Z,13.27
2019-01-31T12:11:10.997Z,10.77
2019-01-31T12:13:41.677Z,10.80
2019-01-31T12:16:12.328Z,10.93
2019-01-31T12:23:42.420Z,8.10
2019-01-31T12:28:44.941Z,7.03
2019-01-31T12:31:15.710Z,5.63
2019-01-31T12:48:44.643Z,5.97
2019-01-31T12:51:15.257Z,6.10
2019-01-31T12:53:45.942Z,4.03
2019-01-31T12:56:16.839Z,5.17
2019-01-31T12:58:47.813Z,7.90
2019-01-31T13:01:18.384Z,6.42
2019-01-31T13:03:49.117Z,5.47
2019-01-31T13:06:19.987Z,11.33
2019-01-31T13:08:50.673Z,6.80
2019-01-31T13:11:21.326Z,5.63
2019-01-31T13:13:51.866Z,3.47
2019-01-31T13:16:22.647Z,6.00
2019-01-31T13:18:53.204Z,4.43
2019-01-31T13:21:23.997Z,6.70
2019-01-31T13:23:54.621Z,5.10
2019-01-31T13:26:25.252Z,8.00
2019-01-31T13:28:55.896Z,15.03
2019-01-31T13:31:26.572Z,3.83
2019-01-31T13:33:57.181Z,3.73
2019-01-31T13:36:28.213Z,3.67
2019-01-31T13:38:58.778Z,6.60
2019-01-31T13:41:29.551Z,4.60
2019-01-31T13:44:01.073Z,7.83
2019-01-31T13:46:31.743Z,6.03
2019-01-31T13:49:04.532Z,3.27
2019-01-31T13:51:35.232Z,3.43
2019-01-31T13:54:06.374Z,2.43
2019-01-31T13:56:45.201Z,4.37
2019-01-31T13:59:10.983Z,5.45
2019-01-31T14:01:41.618Z,5.50
2019-01-31T14:04:12.509Z,6.60
2019-01-31T14:06:43.539Z,8.07
2019-01-31T14:09:14.158Z,6.37
2019-01-31T14:11:44.729Z,13.07
2019-01-31T14:14:15.677Z,4.93
2019-01-31T14:16:47.973Z,5.30
2019-01-31T14:19:20.353Z,4.40
2019-01-31T14:21:52.069Z,9.63
2019-01-31T14:24:22.705Z,6.73
2019-01-31T14:26:53.892Z,2.80
2019-01-31T14:29:26.670Z,5.07
2019-01-31T14:31:57.421Z,7.67
2019-01-31T14:34:28.030Z,5.72
2019-01-31T14:36:58.806Z,6.13
2019-01-31T14:39:29.617Z,4.33
2019-01-31T14:42:02.228Z,5.67
2019-01-31T14:44:33.053Z,4.80
2019-01-31T14:47:04.084Z,7.10
2019-01-31T14:49:34.665Z,6.30
2019-01-31T14:52:06.019Z,5.83
2019-01-31T14:54:36.683Z,4.07
2019-01-31T14:57:07.481Z,5.10
2019-01-31T14:59:38.422Z,5.13
2019-01-31T15:02:09.022Z,5.10
2019-01-31T15:24:39.886Z,2.70
2019-01-31T15:27:10.555Z,4.80
2019-01-31T15:29:42.738Z,4.50
2019-01-31T15:32:17.658Z,5.47
2019-01-31T15:34:48.199Z,3.97
2019-01-31T15:37:18.770Z,6.65
2019-01-31T15:39:51.582Z,2.90
2019-01-31T15:42:22.293Z,3.92
2019-01-31T15:44:52.946Z,4.97
2019-01-31T15:47:26.962Z,4.20
2019-01-31T15:49:57.682Z,5.62
2019-01-31T15:52:28.272Z,4.72
2019-01-31T15:54:58.956Z,6.75
2019-01-31T15:57:29.617Z,8.10
2019-01-31T16:00:00.365Z,3.90
2019-01-31T16:02:31.061Z,3.20
2019-01-31T16:05:01.697Z,4.53
2019-01-31T16:07:32.317Z,7.03
2019-01-31T16:10:03.003Z,5.83
2019-01-31T16:12:35.437Z,9.43
2019-01-31T16:15:07.731Z,4.60
2019-01-31T16:17:38.453Z,7.15
2019-01-31T16:20:11.299Z,8.78
2019-01-31T16:22:42.266Z,7.55
2019-01-31T16:25:12.969Z,5.05
2019-01-31T16:27:43.635Z,6.05
2019-01-31T16:30:14.991Z,8.53
